Pagrindinis puslapis
METAR-TAF:

METAR-TAF

Oro uostai :

Bingöl, Turkija

platuma: 38-51-40N, ilguma: 40-35-33E, Aukštis: 1063 m

Dabartinis oras

Ataskaita buvo paskelbta 9 valandos ir 50 minutes, ne 12:50 UTC
Vėjas 8 kt iš Pietų/Pietryčių, svyruoja nuo Rytų/Pietryčių ir Pietų/Pietvakarių
Temperatūra 25°C
Drėgmė 32%
Slėgis 1016 hPa
Matomumas 10 km arba daugiau
Mažai debesys ne aukštis 3500 ft
Su prošvaistėmis ne aukštis 20000 ft

METAR: LTCU 081250Z 16008KT 110V200 9999 FEW035 BKN200 25/07 Q1016

Laikas: 01:40 (22:40 UTC)

Prognozė

Ataskaita buvo paskelbta 9 valandos ir 0 minutes, ne 13:40 UTC
Prognozė galioja nuo 08 metu 15 UTC su 08 metu 24 UTC
Vėjas 6 kt iš Vakarų
Matomumas 10 km arba daugiau
nėra debesų žemiau 1500 m ir nėra kamuolinių lietaus debesų

TAF: LTCU 081340Z 0815/0824 27006KT CAVOK

Orai ataskaitas ir orų prognozės (METAR, TAF).

turimą stotys yra geltonos ir raudonos taškus žemėlapyje.

Perkelti pele per norėdami pamatyti stoties vardą.

Tada spustelėkite, norėdami matyti oro stebėjimo ir prognozės.

Norėdami pakeisti žemėlapį: spustelėkite ant žalios mygtukų su juodo kryžiaus žemyn,; žalią mygtuką su brūkšneliu, jei norite nutolinti; arba žalių rodyklių gretimoms žemėlapius.


METAR-TAF: